sensor_id;sensor_type;location;lat;lon;timestamp;pressure;altitude;pressure_sealevel;temperature;humidity
53300;BME280;39187;48.476;8.310;2022-08-26T00:01:38;91201.47;;;21.07;59.57
53300;BME280;39187;48.476;8.310;2022-08-26T00:04:04;91199.50;;;21.07;59.31
53300;BME280;39187;48.476;8.310;2022-08-26T00:06:30;91196.78;;;21.07;59.11
53300;BME280;39187;48.476;8.310;2022-08-26T00:08:57;91196.78;;;21.07;58.44
53300;BME280;39187;48.476;8.310;2022-08-26T00:11:22;91197.53;;;21.08;57.72
53300;BME280;39187;48.476;8.310;2022-08-26T00:13:48;91191.38;;;21.07;57.33
53300;BME280;39187;48.476;8.310;2022-08-26T00:16:14;91187.94;;;21.07;56.95
53300;BME280;39187;48.476;8.310;2022-08-26T00:18:40;91192.13;;;21.08;56.51
53300;BME280;39187;48.476;8.310;2022-08-26T00:21:06;91194.38;;;21.09;55.85
53300;BME280;39187;48.476;8.310;2022-08-26T00:23:32;91193.16;;;21.10;55.25
53300;BME280;39187;48.476;8.310;2022-08-26T00:25:58;91198.09;;;21.12;54.57
53300;BME280;39187;48.476;8.310;2022-08-26T00:28:24;91193.66;;;21.14;53.99
53300;BME280;39187;48.476;8.310;2022-08-26T00:30:50;91195.19;;;21.15;53.25
53300;BME280;39187;48.476;8.310;2022-08-26T00:33:16;91194.22;;;21.18;52.76
53300;BME280;39187;48.476;8.310;2022-08-26T00:35:43;91195.50;;;21.23;52.98
53300;BME280;39187;48.476;8.310;2022-08-26T00:38:09;91188.34;;;21.26;53.56
53300;BME280;39187;48.476;8.310;2022-08-26T00:40:39;91189.88;;;21.32;53.57
53300;BME280;39187;48.476;8.310;2022-08-26T00:43:07;91196.03;;;21.33;53.72
53300;BME280;39187;48.476;8.310;2022-08-26T00:46:09;91196.78;;;21.33;53.61
53300;BME280;39187;48.476;8.310;2022-08-26T00:48:38;91188.94;;;21.35;53.75
53300;BME280;39187;48.476;8.310;2022-08-26T00:51:14;91195.59;;;21.40;53.78
53300;BME280;39187;48.476;8.310;2022-08-26T00:53:48;91190.47;;;21.42;53.83
53300;BME280;39187;48.476;8.310;2022-08-26T00:56:20;91193.19;;;21.42;53.71
53300;BME280;39187;48.476;8.310;2022-08-26T00:58:47;91195.13;;;21.41;53.93
53300;BME280;39187;48.476;8.310;2022-08-26T01:01:14;91187.75;;;21.42;53.84
53300;BME280;39187;48.476;8.310;2022-08-26T01:03:41;91187.00;;;21.41;53.93
53300;BME280;39187;48.476;8.310;2022-08-26T01:06:07;91195.13;;;21.41;54.02
53300;BME280;39187;48.476;8.310;2022-08-26T01:08:33;91192.91;;;21.40;54.16
53300;BME280;39187;48.476;8.310;2022-08-26T01:11:00;91193.66;;;21.40;54.09
53300;BME280;39187;48.476;8.310;2022-08-26T01:13:28;91193.66;;;21.40;54.21
53300;BME280;39187;48.476;8.310;2022-08-26T01:15:56;91200.56;;;21.41;54.29
53300;BME280;39187;48.476;8.310;2022-08-26T01:18:23;91195.41;;;21.43;54.60
53300;BME280;39187;48.476;8.310;2022-08-26T01:23:46;91194.44;;;21.46;54.93
53300;BME280;39187;48.476;8.310;2022-08-26T01:26:21;91200.13;;;21.48;54.94
53300;BME280;39187;48.476;8.310;2022-08-26T01:28:51;91194.69;;;21.48;55.19
53300;BME280;39187;48.476;8.310;2022-08-26T01:31:22;91198.63;;;21.47;55.04
53300;BME280;39187;48.476;8.310;2022-08-26T01:34:15;91197.84;;;21.41;55.22
53300;BME280;39187;48.476;8.310;2022-08-26T01:36:43;91185.25;;;21.38;55.17
53300;BME280;39187;48.476;8.310;2022-08-26T01:39:09;91190.44;;;21.36;55.52
53300;BME280;39187;48.476;8.310;2022-08-26T01:41:36;91191.66;;;21.35;55.90
53300;BME280;39187;48.476;8.310;2022-08-26T01:44:04;91197.53;;;21.34;56.04
53300;BME280;39187;48.476;8.310;2022-08-26T01:46:31;91205.38;;;21.32;56.03
53300;BME280;39187;48.476;8.310;2022-08-26T01:49:02;91199.72;;;21.30;56.13
53300;BME280;39187;48.476;8.310;2022-08-26T01:51:29;91193.78;;;21.26;56.28
53300;BME280;39187;48.476;8.310;2022-08-26T01:53:56;91198.47;;;21.25;56.22
53300;BME280;39187;48.476;8.310;2022-08-26T01:56:22;91201.91;;;21.26;56.14
53300;BME280;39187;48.476;8.310;2022-08-26T01:58:52;91204.13;;;21.27;56.19
53300;BME280;39187;48.476;8.310;2022-08-26T02:01:19;91203.88;;;21.25;56.37
53300;BME280;39187;48.476;8.310;2022-08-26T02:04:02;91202.41;;;21.24;56.18
53300;BME280;39187;48.476;8.310;2022-08-26T02:06:33;91202.34;;;21.18;56.41
53300;BME280;39187;48.476;8.310;2022-08-26T02:09:01;91204.31;;;21.18;56.55
53300;BME280;39187;48.476;8.310;2022-08-26T02:11:27;91201.59;;;21.18;56.67
53300;BME280;39187;48.476;8.310;2022-08-26T02:13:56;91195.22;;;21.21;56.75
53300;BME280;39187;48.476;8.310;2022-08-26T02:16:25;91193.50;;;21.18;56.94
53300;BME280;39187;48.476;8.310;2022-08-26T02:18:53;91201.59;;;21.18;56.89
53300;BME280;39187;48.476;8.310;2022-08-26T02:21:20;91203.31;;;21.15;57.06
53300;BME280;39187;48.476;8.310;2022-08-26T02:23:46;91207.03;;;21.18;57.06
53300;BME280;39187;48.476;8.310;2022-08-26T02:26:18;91205.53;;;21.17;57.04
53300;BME280;39187;48.476;8.310;2022-08-26T02:31:15;91200.06;;;21.11;57.35
53300;BME280;39187;48.476;8.310;2022-08-26T02:33:40;91204.44;;;21.09;57.44
53300;BME280;39187;48.476;8.310;2022-08-26T02:36:06;91198.25;;;21.03;57.70
53300;BME280;39187;48.476;8.310;2022-08-26T02:38:33;91200.69;;;21.01;57.73
53300;BME280;39187;48.476;8.310;2022-08-26T02:40:58;91190.06;;;20.97;57.91
53300;BME280;39187;48.476;8.310;2022-08-26T02:43:24;91195.50;;;20.97;57.98
53300;BME280;39187;48.476;8.310;2022-08-26T02:45:49;91191.03;;;20.94;58.26
53300;BME280;39187;48.476;8.310;2022-08-26T02:48:17;91185.38;;;20.92;58.42
53300;BME280;39187;48.476;8.310;2022-08-26T02:50:44;91192.00;;;20.91;58.50
53300;BME280;39187;48.476;8.310;2022-08-26T02:53:10;91182.38;;;20.90;58.74
53300;BME280;39187;48.476;8.310;2022-08-26T02:55:36;91189.00;;;20.89;58.82
53300;BME280;39187;48.476;8.310;2022-08-26T02:58:02;91189.97;;;20.86;59.11
53300;BME280;39187;48.476;8.310;2022-08-26T03:00:29;91180.84;;;20.84;59.17
53300;BME280;39187;48.476;8.310;2022-08-26T03:02:57;91182.06;;;20.83;59.15
53300;BME280;39187;48.476;8.310;2022-08-26T03:05:23;91185.19;;;20.75;59.50
53300;BME280;39187;48.476;8.310;2022-08-26T03:07:49;91185.94;;;20.76;59.43
53300;BME280;39187;48.476;8.310;2022-08-26T03:10:15;91185.41;;;20.72;59.54
53300;BME280;39187;48.476;8.310;2022-08-26T03:12:42;91179.25;;;20.71;59.64
53300;BME280;39187;48.476;8.310;2022-08-26T03:15:10;91177.78;;;20.70;59.97
53300;BME280;39187;48.476;8.310;2022-08-26T03:17:37;91179.72;;;20.70;59.92
53300;BME280;39187;48.476;8.310;2022-08-26T03:20:04;91178.25;;;20.69;60.03
53300;BME280;39187;48.476;8.310;2022-08-26T03:22:37;91178.25;;;20.69;59.93
53300;BME280;39187;48.476;8.310;2022-08-26T03:25:05;91178.00;;;20.67;59.97
53300;BME280;39187;48.476;8.310;2022-08-26T03:27:31;91180.44;;;20.65;60.03
53300;BME280;39187;48.476;8.310;2022-08-26T03:29:58;91183.88;;;20.65;60.10
53300;BME280;39187;48.476;8.310;2022-08-26T03:32:42;91177.44;;;20.63;60.47
53300;BME280;39187;48.476;8.310;2022-08-26T03:35:09;91179.91;;;20.61;60.40
53300;BME280;39187;48.476;8.310;2022-08-26T03:37:35;91184.28;;;20.58;60.62
53300;BME280;39187;48.476;8.310;2022-08-26T03:40:00;91177.88;;;20.56;61.11
53300;BME280;39187;48.476;8.310;2022-08-26T03:42:26;91182.53;;;20.55;61.45
53300;BME280;39187;48.476;8.310;2022-08-26T03:44:52;91180.56;;;20.56;61.50
53300;BME280;39187;48.476;8.310;2022-08-26T03:47:18;91172.41;;;20.50;61.94
53300;BME280;39187;48.476;8.310;2022-08-26T03:49:44;91174.84;;;20.48;62.00
53300;BME280;39187;48.476;8.310;2022-08-26T03:52:09;91175.03;;;20.45;62.11
53300;BME280;39187;48.476;8.310;2022-08-26T03:54:35;91176.47;;;20.40;62.40
53300;BME280;39187;48.476;8.310;2022-08-26T03:57:01;91178.63;;;20.36;62.84
53300;BME280;39187;48.476;8.310;2022-08-26T03:59:27;91180.34;;;20.33;63.20
53300;BME280;39187;48.476;8.310;2022-08-26T04:01:52;91183.47;;;20.32;63.24
53300;BME280;39187;48.476;8.310;2022-08-26T04:04:18;91185.44;;;20.31;63.35
53300;BME280;39187;48.476;8.310;2022-08-26T04:06:44;91173.88;;;20.31;63.28
53300;BME280;39187;48.476;8.310;2022-08-26T04:09:17;91181.56;;;20.32;63.16
53300;BME280;39187;48.476;8.310;2022-08-26T04:11:44;91175.38;;;20.32;63.12
53300;BME280;39187;48.476;8.310;2022-08-26T04:14:15;91172.97;;;20.34;62.99
53300;BME280;39187;48.476;8.310;2022-08-26T04:16:43;91169.22;;;20.31;63.09
53300;BME280;39187;48.476;8.310;2022-08-26T04:19:11;91169.22;;;20.31;62.97
53300;BME280;39187;48.476;8.310;2022-08-26T04:21:37;91167.00;;;20.30;62.95
53300;BME280;39187;48.476;8.310;2022-08-26T04:24:05;91173.13;;;20.30;63.18
53300;BME280;39187;48.476;8.310;2022-08-26T04:26:32;91163.81;;;20.31;63.08
53300;BME280;39187;48.476;8.310;2022-08-26T04:29:03;91159.63;;;20.30;63.08
53300;BME280;39187;48.476;8.310;2022-08-26T04:31:29;91164.13;;;20.33;62.96
53300;BME280;39187;48.476;8.310;2022-08-26T04:33:54;91157.97;;;20.33;62.52
53300;BME280;39187;48.476;8.310;2022-08-26T04:36:21;91167.09;;;20.35;62.81
53300;BME280;39187;48.476;8.310;2022-08-26T04:38:48;91161.75;;;20.41;62.52
53300;BME280;39187;48.476;8.310;2022-08-26T04:41:16;91160.25;;;20.40;62.25
53300;BME280;39187;48.476;8.310;2022-08-26T04:43:42;91161.34;;;20.48;62.10
53300;BME280;39187;48.476;8.310;2022-08-26T04:46:08;91159.34;;;20.49;61.82
53300;BME280;39187;48.476;8.310;2022-08-26T04:48:35;91162.06;;;20.49;61.78
53300;BME280;39187;48.476;8.310;2022-08-26T04:51:01;91167.31;;;20.58;61.48
53300;BME280;39187;48.476;8.310;2022-08-26T04:53:29;91169.28;;;20.57;61.38
53300;BME280;39187;48.476;8.310;2022-08-26T04:55:55;91173.47;;;20.58;61.38
53300;BME280;39187;48.476;8.310;2022-08-26T04:58:22;91168.22;;;20.75;61.00
53300;BME280;39187;48.476;8.310;2022-08-26T05:00:50;91172.03;;;20.89;60.52
53300;BME280;39187;48.476;8.310;2022-08-26T05:03:17;91170.16;;;21.00;59.77
53300;BME280;39187;48.476;8.310;2022-08-26T05:05:44;91171.97;;;21.09;59.42
53300;BME280;39187;48.476;8.310;2022-08-26T05:08:12;91174.94;;;21.11;59.53
53300;BME280;39187;48.476;8.310;2022-08-26T05:10:43;91178.41;;;21.43;58.88
53300;BME280;39187;48.476;8.310;2022-08-26T05:13:08;91166.72;;;21.99;56.62
53300;BME280;39187;48.476;8.310;2022-08-26T05:15:35;91178.75;;;22.58;54.75
53300;BME280;39187;48.476;8.310;2022-08-26T05:18:04;91170.72;;;23.02;53.01
53300;BME280;39187;48.476;8.310;2022-08-26T05:20:31;91177.91;;;23.33;52.39
53300;BME280;39187;48.476;8.310;2022-08-26T05:23:00;91171.69;;;23.88;50.79
53300;BME280;39187;48.476;8.310;2022-08-26T05:25:27;91179.31;;;24.12;49.59
53300;BME280;39187;48.476;8.310;2022-08-26T05:27:52;91179.13;;;24.62;49.12
53300;BME280;39187;48.476;8.310;2022-08-26T05:30:18;91177.53;;;24.89;48.25
53300;BME280;39187;48.476;8.310;2022-08-26T05:32:46;91171.00;;;25.39;47.22
53300;BME280;39187;48.476;8.310;2022-08-26T05:35:13;91181.81;;;25.80;46.30
53300;BME280;39187;48.476;8.310;2022-08-26T05:37:38;91185.63;;;26.20;45.27
53300;BME280;39187;48.476;8.310;2022-08-26T05:40:04;91178.09;;;26.56;44.07
53300;BME280;39187;48.476;8.310;2022-08-26T05:42:30;91179.66;;;26.89;43.12
53300;BME280;39187;48.476;8.310;2022-08-26T05:44:55;91184.00;;;27.16;42.06
53300;BME280;39187;48.476;8.310;2022-08-26T05:47:22;91176.22;;;27.39;41.42
53300;BME280;39187;48.476;8.310;2022-08-26T05:49:47;91185.09;;;27.77;41.05
53300;BME280;39187;48.476;8.310;2022-08-26T05:52:13;91176.84;;;28.09;40.19
53300;BME280;39187;48.476;8.310;2022-08-26T05:54:39;91181.81;;;28.50;39.51
53300;BME280;39187;48.476;8.310;2022-08-26T05:57:04;91182.31;;;28.75;38.56
53300;BME280;39187;48.476;8.310;2022-08-26T05:59:30;91183.47;;;28.92;38.65
53300;BME280;39187;48.476;8.310;2022-08-26T06:01:55;91178.19;;;29.41;37.40
53300;BME280;39187;48.476;8.310;2022-08-26T06:04:22;91184.00;;;29.79;36.83
53300;BME280;39187;48.476;8.310;2022-08-26T06:06:50;91184.81;;;29.46;37.22
53300;BME280;39187;48.476;8.310;2022-08-26T06:09:17;91183.41;;;29.73;36.61
53300;BME280;39187;48.476;8.310;2022-08-26T06:11:43;91182.09;;;30.08;36.50
53300;BME280;39187;48.476;8.310;2022-08-26T06:14:08;91176.53;;;30.01;36.20
53300;BME280;39187;48.476;8.310;2022-08-26T06:16:37;91183.91;;;30.06;35.65
53300;BME280;39187;48.476;8.310;2022-08-26T06:19:05;91185.19;;;30.33;35.54
53300;BME280;39187;48.476;8.310;2022-08-26T06:21:33;91181.56;;;30.66;34.69
53300;BME280;39187;48.476;8.310;2022-08-26T06:24:02;91182.53;;;31.13;34.48
53300;BME280;39187;48.476;8.310;2022-08-26T06:26:49;91178.75;;;31.38;33.39
53300;BME280;39187;48.476;8.310;2022-08-26T06:29:15;91188.81;;;31.28;33.66
53300;BME280;39187;48.476;8.310;2022-08-26T06:31:41;91185.16;;;31.33;33.67
53300;BME280;39187;48.476;8.310;2022-08-26T06:34:07;91195.72;;;31.88;32.82
53300;BME280;39187;48.476;8.310;2022-08-26T06:36:33;91190.44;;;32.13;32.79
53300;BME280;39187;48.476;8.310;2022-08-26T06:39:06;91193.50;;;31.64;32.26
53300;BME280;39187;48.476;8.310;2022-08-26T06:41:35;91200.66;;;31.08;33.52
53300;BME280;39187;48.476;8.310;2022-08-26T06:44:02;91199.84;;;31.36;33.46
53300;BME280;39187;48.476;8.310;2022-08-26T06:46:29;91200.88;;;31.92;32.90
53300;BME280;39187;48.476;8.310;2022-08-26T06:48:55;91200.38;;;32.39;31.97
53300;BME280;39187;48.476;8.310;2022-08-26T06:51:28;91200.34;;;32.46;30.98
53300;BME280;39187;48.476;8.310;2022-08-26T06:53:56;91202.44;;;31.41;32.75
53300;BME280;39187;48.476;8.310;2022-08-26T06:56:26;91199.09;;;32.32;31.55
53300;BME280;39187;48.476;8.310;2022-08-26T06:58:52;91199.97;;;31.97;32.32
53300;BME280;39187;48.476;8.310;2022-08-26T07:01:22;91209.69;;;31.90;32.20
53300;BME280;39187;48.476;8.310;2022-08-26T07:03:50;91206.41;;;32.07;32.14
53300;BME280;39187;48.476;8.310;2022-08-26T07:06:17;91210.66;;;32.38;31.71
53300;BME280;39187;48.476;8.310;2022-08-26T07:08:47;91208.66;;;30.62;33.73
53300;BME280;39187;48.476;8.310;2022-08-26T07:11:13;91201.88;;;30.63;33.90
53300;BME280;39187;48.476;8.310;2022-08-26T07:13:39;91204.94;;;30.32;34.32
53300;BME280;39187;48.476;8.310;2022-08-26T07:16:06;91209.03;;;29.55;35.36
53300;BME280;39187;48.476;8.310;2022-08-26T07:18:34;91205.91;;;29.72;35.11
53300;BME280;39187;48.476;8.310;2022-08-26T07:21:01;91214.31;;;29.53;35.71
53300;BME280;39187;48.476;8.310;2022-08-26T07:23:27;91208.25;;;29.68;35.38
53300;BME280;39187;48.476;8.310;2022-08-26T07:25:53;91211.47;;;29.12;36.38
53300;BME280;39187;48.476;8.310;2022-08-26T07:28:19;91219.84;;;27.95;38.33
53300;BME280;39187;48.476;8.310;2022-08-26T07:30:45;91225.72;;;27.35;39.44
53300;BME280;39187;48.476;8.310;2022-08-26T07:33:10;91218.53;;;28.15;38.77
53300;BME280;39187;48.476;8.310;2022-08-26T07:35:36;91214.47;;;28.61;37.76
53300;BME280;39187;48.476;8.310;2022-08-26T07:38:02;91215.63;;;28.92;37.30
53300;BME280;39187;48.476;8.310;2022-08-26T07:40:28;91219.47;;;29.77;35.99
53300;BME280;39187;48.476;8.310;2022-08-26T07:42:53;91210.06;;;30.27;35.36
53300;BME280;39187;48.476;8.310;2022-08-26T07:45:19;91216.56;;;30.17;35.11
53300;BME280;39187;48.476;8.310;2022-08-26T07:47:45;91216.97;;;30.21;34.56
53300;BME280;39187;48.476;8.310;2022-08-26T07:50:10;91217.22;;;30.31;34.49
53300;BME280;39187;48.476;8.310;2022-08-26T07:52:36;91219.03;;;29.86;35.41
53300;BME280;39187;48.476;8.310;2022-08-26T07:55:05;91216.16;;;30.62;34.10
53300;BME280;39187;48.476;8.310;2022-08-26T07:57:32;91223.50;;;29.56;35.86
53300;BME280;39187;48.476;8.310;2022-08-26T07:59:59;91225.91;;;29.80;34.96
53300;BME280;39187;48.476;8.310;2022-08-26T08:02:25;91222.56;;;29.06;36.76
53300;BME280;39187;48.476;8.310;2022-08-26T08:04:53;91222.88;;;29.02;36.60
53300;BME280;39187;48.476;8.310;2022-08-26T08:07:18;91228.13;;;29.81;34.80
53300;BME280;39187;48.476;8.310;2022-08-26T08:09:44;91220.91;;;29.37;35.59
53300;BME280;39187;48.476;8.310;2022-08-26T08:12:15;91224.19;;;29.69;36.05
53300;BME280;39187;48.476;8.310;2022-08-26T08:14:41;91226.69;;;28.86;37.11
53300;BME280;39187;48.476;8.310;2022-08-26T08:17:10;91214.84;;;29.52;35.54
53300;BME280;39187;48.476;8.310;2022-08-26T08:19:36;91220.53;;;29.54;35.90
53300;BME280;39187;48.476;8.310;2022-08-26T08:22:02;91229.22;;;30.20;34.43
53300;BME280;39187;48.476;8.310;2022-08-26T08:24:30;91215.50;;;29.99;34.27
53300;BME280;39187;48.476;8.310;2022-08-26T08:26:58;91221.72;;;30.20;34.37
53300;BME280;39187;48.476;8.310;2022-08-26T08:29:23;91227.22;;;30.00;34.72
53300;BME280;39187;48.476;8.310;2022-08-26T08:31:49;91228.47;;;30.48;34.49
53300;BME280;39187;48.476;8.310;2022-08-26T08:34:16;91230.41;;;30.53;33.92
53300;BME280;39187;48.476;8.310;2022-08-26T08:36:42;91221.84;;;29.39;35.20
53300;BME280;39187;48.476;8.310;2022-08-26T08:39:10;91218.25;;;28.97;35.50
53300;BME280;39187;48.476;8.310;2022-08-26T08:44:24;91221.91;;;30.22;35.16
53300;BME280;39187;48.476;8.310;2022-08-26T08:47:20;91212.38;;;30.73;33.51
53300;BME280;39187;48.476;8.310;2022-08-26T08:49:51;91219.50;;;30.68;32.99
53300;BME280;39187;48.476;8.310;2022-08-26T08:52:31;91219.47;;;30.40;33.46
53300;BME280;39187;48.476;8.310;2022-08-26T08:55:00;91214.16;;;30.62;32.73
53300;BME280;39187;48.476;8.310;2022-08-26T08:57:51;91215.63;;;29.94;33.52
53300;BME280;39187;48.476;8.310;2022-08-26T09:00:20;91208.78;;;29.87;33.91
53300;BME280;39187;48.476;8.310;2022-08-26T09:03:09;91211.97;;;30.40;32.88
53300;BME280;39187;48.476;8.310;2022-08-26T09:05:40;91222.53;;;29.53;34.51
53300;BME280;39187;48.476;8.310;2022-08-26T09:08:17;91212.22;;;30.21;33.22
53300;BME280;39187;48.476;8.310;2022-08-26T09:10:53;91206.25;;;29.89;33.12
53300;BME280;39187;48.476;8.310;2022-08-26T09:13:22;91212.13;;;29.38;34.21
53300;BME280;39187;48.476;8.310;2022-08-26T09:16:02;91209.28;;;28.97;34.88
53300;BME280;39187;48.476;8.310;2022-08-26T09:21:09;91204.56;;;30.27;32.38
53300;BME280;39187;48.476;8.310;2022-08-26T09:23:38;91203.63;;;30.82;32.36
53300;BME280;39187;48.476;8.310;2022-08-26T09:26:17;91193.16;;;31.67;30.45
53300;BME280;39187;48.476;8.310;2022-08-26T09:29:04;91193.16;;;31.82;30.07
53300;BME280;39187;48.476;8.310;2022-08-26T09:31:32;91197.94;;;31.82;28.96
53300;BME280;39187;48.476;8.310;2022-08-26T09:39:09;91197.50;;;31.48;33.25
53300;BME280;39187;48.476;8.310;2022-08-26T09:41:36;91189.56;;;29.87;36.05
53300;BME280;39187;48.476;8.310;2022-08-26T09:44:14;91199.78;;;29.11;37.02
53300;BME280;39187;48.476;8.310;2022-08-26T09:47:00;91196.47;;;29.60;36.73
53300;BME280;39187;48.476;8.310;2022-08-26T09:49:31;91200.34;;;29.30;37.04
53300;BME280;39187;48.476;8.310;2022-08-26T09:52:04;91206.56;;;29.31;37.29
53300;BME280;39187;48.476;8.310;2022-08-26T09:54:30;91202.78;;;28.87;38.02
53300;BME280;39187;48.476;8.310;2022-08-26T09:59:41;91202.66;;;28.92;38.08
53300;BME280;39187;48.476;8.310;2022-08-26T10:02:34;91200.84;;;28.68;38.61
53300;BME280;39187;48.476;8.310;2022-08-26T10:05:07;91197.09;;;28.45;38.75
53300;BME280;39187;48.476;8.310;2022-08-26T10:07:41;91194.66;;;28.15;39.74
53300;BME280;39187;48.476;8.310;2022-08-26T10:10:12;91200.91;;;27.97;40.30
53300;BME280;39187;48.476;8.310;2022-08-26T10:12:47;91212.59;;;27.52;44.54
53300;BME280;39187;48.476;8.310;2022-08-26T10:15:14;91208.22;;;27.25;46.51
53300;BME280;39187;48.476;8.310;2022-08-26T10:18:01;91216.50;;;26.58;50.46
53300;BME280;39187;48.476;8.310;2022-08-26T10:20:33;91213.59;;;25.77;54.32
53300;BME280;39187;48.476;8.310;2022-08-26T10:23:16;91207.94;;;25.70;56.22
53300;BME280;39187;48.476;8.310;2022-08-26T10:28:31;91198.88;;;25.21;57.24
53300;BME280;39187;48.476;8.310;2022-08-26T10:31:03;91201.16;;;25.11;56.91
53300;BME280;39187;48.476;8.310;2022-08-26T10:33:31;91204.78;;;24.84;59.22
53300;BME280;39187;48.476;8.310;2022-08-26T10:36:00;91208.00;;;24.82;60.15
53300;BME280;39187;48.476;8.310;2022-08-26T10:38:36;91214.88;;;24.20;62.99
53300;BME280;39187;48.476;8.310;2022-08-26T10:41:17;91210.28;;;23.59;56.43
53300;BME280;39187;48.476;8.310;2022-08-26T10:43:55;91210.75;;;23.35;59.40
53300;BME280;39187;48.476;8.310;2022-08-26T10:47:00;91214.69;;;23.45;59.94
53300;BME280;39187;48.476;8.310;2022-08-26T10:49:18;91219.13;;;23.21;62.28
53300;BME280;39187;48.476;8.310;2022-08-26T10:54:50;91229.31;;;23.53;59.10
53300;BME280;39187;48.476;8.310;2022-08-26T11:00:07;91224.47;;;22.76;58.05
53300;BME280;39187;48.476;8.310;2022-08-26T11:03:05;91217.09;;;22.88;57.71
53300;BME280;39187;48.476;8.310;2022-08-26T11:05:33;91221.84;;;23.21;57.74
53300;BME280;39187;48.476;8.310;2022-08-26T11:13:14;91209.75;;;23.33;66.28
53300;BME280;39187;48.476;8.310;2022-08-26T11:18:11;91217.38;;;23.17;69.05
53300;BME280;39187;48.476;8.310;2022-08-26T11:20:44;91211.22;;;23.11;71.11
53300;BME280;39187;48.476;8.310;2022-08-26T11:28:48;91211.91;;;22.84;72.04
53300;BME280;39187;48.476;8.310;2022-08-26T11:33:47;91192.66;;;22.88;62.60
53300;BME280;39187;48.476;8.310;2022-08-26T11:39:32;91193.88;;;22.75;59.80
53300;BME280;39187;48.476;8.310;2022-08-26T11:42:14;91202.31;;;23.00;60.23
53300;BME280;39187;48.476;8.310;2022-08-26T11:44:42;91200.84;;;23.10;61.02
53300;BME280;39187;48.476;8.310;2022-08-26T11:47:09;91212.22;;;23.14;65.41
53300;BME280;39187;48.476;8.310;2022-08-26T11:49:37;91210.47;;;23.05;71.12
53300;BME280;39187;48.476;8.310;2022-08-26T11:52:12;91210.97;;;23.04;72.94
53300;BME280;39187;48.476;8.310;2022-08-26T11:54:38;91202.56;;;22.96;71.98
53300;BME280;39187;48.476;8.310;2022-08-26T11:57:05;91206.25;;;22.93;71.71
53300;BME280;39187;48.476;8.310;2022-08-26T11:59:34;91203.06;;;23.00;72.26
53300;BME280;39187;48.476;8.310;2022-08-26T12:02:03;91207.47;;;22.92;73.37
53300;BME280;39187;48.476;8.310;2022-08-26T12:04:38;91207.97;;;22.91;75.01
53300;BME280;39187;48.476;8.310;2022-08-26T12:07:05;91210.69;;;22.91;75.51
53300;BME280;39187;48.476;8.310;2022-08-26T12:09:35;91198.34;;;22.95;74.93
53300;BME280;39187;48.476;8.310;2022-08-26T12:12:22;91190.72;;;23.05;75.13
53300;BME280;39187;48.476;8.310;2022-08-26T12:14:48;91197.63;;;23.06;72.93
53300;BME280;39187;48.476;8.310;2022-08-26T12:17:25;91196.41;;;23.12;68.25
53300;BME280;39187;48.476;8.310;2022-08-26T12:19:50;91196.41;;;23.18;72.97
53300;BME280;39187;48.476;8.310;2022-08-26T12:22:23;91188.28;;;23.24;69.82
53300;BME280;39187;48.476;8.310;2022-08-26T12:24:55;91188.28;;;23.29;70.20
53300;BME280;39187;48.476;8.310;2022-08-26T12:27:34;91193.72;;;23.35;72.11
53300;BME280;39187;48.476;8.310;2022-08-26T12:30:11;91193.22;;;23.36;73.24
53300;BME280;39187;48.476;8.310;2022-08-26T12:32:45;91197.41;;;23.37;74.69
53300;BME280;39187;48.476;8.310;2022-08-26T12:35:15;91193.94;;;23.37;76.86
53300;BME280;39187;48.476;8.310;2022-08-26T12:37:44;91191.22;;;23.37;76.92
53300;BME280;39187;48.476;8.310;2022-08-26T12:40:38;91192.22;;;23.39;72.79
53300;BME280;39187;48.476;8.310;2022-08-26T12:43:06;91191.00;;;23.40;70.32
53300;BME280;39187;48.476;8.310;2022-08-26T12:45:43;91184.81;;;23.45;70.05
53300;BME280;39187;48.476;8.310;2022-08-26T12:48:34;91186.28;;;23.46;72.22
53300;BME280;39187;48.476;8.310;2022-08-26T12:51:01;91183.59;;;23.57;72.80
53300;BME280;39187;48.476;8.310;2022-08-26T12:53:32;91183.84;;;23.60;72.44
53300;BME280;39187;48.476;8.310;2022-08-26T12:56:01;91182.59;;;23.66;74.63
53300;BME280;39187;48.476;8.310;2022-08-26T12:58:35;91186.06;;;23.72;75.13
53300;BME280;39187;48.476;8.310;2022-08-26T13:14:10;91174.59;;;24.13;69.21
53300;BME280;39187;48.476;8.310;2022-08-26T13:16:37;91174.59;;;24.13;72.26
53300;BME280;39187;48.476;8.310;2022-08-26T13:19:08;91178.06;;;24.24;68.53
53300;BME280;39187;48.476;8.310;2022-08-26T13:21:38;91172.38;;;24.22;69.98
53300;BME280;39187;48.476;8.310;2022-08-26T13:24:08;91161.69;;;24.35;71.15
53300;BME280;39187;48.476;8.310;2022-08-26T13:26:37;91156.47;;;24.43;71.75
53300;BME280;39187;48.476;8.310;2022-08-26T13:29:03;91161.91;;;24.43;71.92
53300;BME280;39187;48.476;8.310;2022-08-26T13:31:30;91147.94;;;24.06;62.36
53300;BME280;39187;48.476;8.310;2022-08-26T13:33:57;91151.06;;;24.32;59.41
53300;BME280;39187;48.476;8.310;2022-08-26T13:36:23;91146.91;;;24.25;58.20
53300;BME280;39187;48.476;8.310;2022-08-26T13:38:48;91147.13;;;24.27;56.46
53300;BME280;39187;48.476;8.310;2022-08-26T13:41:14;91137.44;;;24.38;56.39
53300;BME280;39187;48.476;8.310;2022-08-26T13:43:40;91140.09;;;24.49;57.68
53300;BME280;39187;48.476;8.310;2022-08-26T13:46:06;91133.13;;;24.59;60.15
53300;BME280;39187;48.476;8.310;2022-08-26T13:48:31;91122.47;;;24.61;60.85
53300;BME280;39187;48.476;8.310;2022-08-26T13:50:59;91118.50;;;24.62;61.86
53300;BME280;39187;48.476;8.310;2022-08-26T13:53:27;91125.97;;;24.56;62.18
53300;BME280;39187;48.476;8.310;2022-08-26T13:55:55;91126.69;;;24.62;60.83
53300;BME280;39187;48.476;8.310;2022-08-26T13:58:21;91127.88;;;24.66;61.61
53300;BME280;39187;48.476;8.310;2022-08-26T14:00:47;91128.13;;;24.68;63.32
53300;BME280;39187;48.476;8.310;2022-08-26T14:03:13;91126.59;;;24.73;65.30
53300;BME280;39187;48.476;8.310;2022-08-26T14:05:39;91125.13;;;24.72;66.91
53300;BME280;39187;48.476;8.310;2022-08-26T14:08:04;91122.66;;;24.74;67.77
53300;BME280;39187;48.476;8.310;2022-08-26T14:10:30;91119.34;;;24.40;66.39